createdAt,value
2018-10-19T00:01:47.360Z,76.63
2018-10-19T00:04:19.623Z,76.88
2018-10-19T00:06:51.912Z,76.88
2018-10-19T00:09:24.185Z,77.06
2018-10-19T00:11:56.506Z,77.61
2018-10-19T00:14:28.781Z,77.69
2018-10-19T00:17:01.091Z,77.62
2018-10-19T00:19:33.302Z,77.32
2018-10-19T00:22:06.269Z,76.97
2018-10-19T00:24:38.512Z,77.38
2018-10-19T00:27:10.855Z,77.27
2018-10-19T00:29:43.408Z,77.41
2018-10-19T00:32:16.041Z,77.08
2018-10-19T00:34:48.489Z,76.65
2018-10-19T00:37:21.245Z,76.53
2018-10-19T00:39:53.481Z,76.70
2018-10-19T00:42:25.785Z,76.87
2018-10-19T00:44:58.053Z,77.04
2018-10-19T00:47:30.637Z,76.92
2018-10-19T00:50:03.106Z,76.91
2018-10-19T00:52:35.502Z,77.27
2018-10-19T00:55:07.798Z,77.30
2018-10-19T00:57:40.064Z,77.13
2018-10-19T01:00:12.310Z,77.01
2018-10-19T01:02:44.607Z,77.35
2018-10-19T01:05:16.938Z,77.27
2018-10-19T01:07:49.190Z,76.42
2018-10-19T01:10:22.469Z,76.64
2018-10-19T01:12:58.895Z,76.84
2018-10-19T01:15:31.205Z,77.16
2018-10-19T01:18:03.724Z,76.54
2018-10-19T01:20:36.069Z,77.19
2018-10-19T01:23:08.366Z,77.35
2018-10-19T01:25:41.801Z,77.76
2018-10-19T01:28:14.111Z,77.62
2018-10-19T01:30:46.406Z,78.15
2018-10-19T01:33:18.657Z,78.13
2018-10-19T01:35:51.025Z,78.07
2018-10-19T01:38:23.306Z,78.10
2018-10-19T01:40:55.659Z,77.51
2018-10-19T01:43:27.889Z,76.84
2018-10-19T01:46:00.170Z,76.57
2018-10-19T01:48:32.470Z,76.02
2018-10-19T01:51:04.787Z,75.93
2018-10-19T01:53:37.034Z,75.92
2018-10-19T01:56:09.329Z,75.54
2018-10-19T01:58:41.575Z,76.38
2018-10-19T02:01:13.852Z,76.82
2018-10-19T02:03:46.270Z,76.63
2018-10-19T02:06:18.608Z,76.11
2018-10-19T02:08:50.882Z,76.55
2018-10-19T02:11:23.156Z,76.30
2018-10-19T02:13:55.407Z,76.19
2018-10-19T02:16:27.669Z,75.42
2018-10-19T02:18:59.913Z,76.22
2018-10-19T02:21:32.246Z,76.83
2018-10-19T02:24:04.574Z,77.00
2018-10-19T02:26:37.249Z,77.13
2018-10-19T02:29:09.543Z,77.84
2018-10-19T02:31:41.839Z,77.96
2018-10-19T02:34:14.216Z,77.66
2018-10-19T02:36:46.525Z,78.62
2018-10-19T02:39:18.907Z,78.41
2018-10-19T02:41:51.113Z,78.76
2018-10-19T02:44:23.378Z,78.67
2018-10-19T02:46:55.850Z,78.79
2018-10-19T02:49:28.049Z,79.07
2018-10-19T02:52:00.317Z,79.34
2018-10-19T02:54:32.837Z,79.09
2018-10-19T02:57:05.515Z,78.58
2018-10-19T02:59:37.751Z,78.65
2018-10-19T03:02:10.008Z,78.75
2018-10-19T03:04:42.341Z,79.23
2018-10-19T03:07:14.597Z,79.37
2018-10-19T03:09:46.868Z,79.80
2018-10-19T03:12:19.108Z,79.47
2018-10-19T03:14:51.408Z,80.05
2018-10-19T03:17:23.682Z,79.54
2018-10-19T03:19:56.186Z,79.96
2018-10-19T03:22:28.437Z,79.93
2018-10-19T03:25:00.680Z,79.60
2018-10-19T03:27:32.945Z,78.74
2018-10-19T03:30:06.049Z,78.42
2018-10-19T03:32:38.358Z,79.11
2018-10-19T03:35:10.690Z,78.95
2018-10-19T03:37:42.881Z,79.12
2018-10-19T03:40:15.179Z,78.66
2018-10-19T03:42:47.437Z,77.77
2018-10-19T03:45:19.730Z,76.96
2018-10-19T03:47:51.978Z,76.85
2018-10-19T03:50:24.370Z,76.77
2018-10-19T03:52:56.814Z,76.19
2018-10-19T03:55:29.190Z,76.66
2018-10-19T03:58:01.459Z,76.09
2018-10-19T04:00:33.873Z,76.53
2018-10-19T04:03:06.191Z,76.70
2018-10-19T04:05:38.525Z,76.49
2018-10-19T04:08:10.805Z,77.33
2018-10-19T04:10:43.040Z,77.12
2018-10-19T04:13:15.336Z,78.76
2018-10-19T04:15:47.579Z,78.77
2018-10-19T04:18:19.841Z,79.66
2018-10-19T04:20:52.158Z,78.58
2018-10-19T04:23:24.409Z,77.88
2018-10-19T04:25:56.683Z,77.93
2018-10-19T04:28:28.966Z,77.40
2018-10-19T04:31:01.432Z,77.67
2018-10-19T04:33:33.753Z,77.98
2018-10-19T04:36:06.009Z,77.71
2018-10-19T04:38:38.272Z,78.01
2018-10-19T04:41:10.683Z,78.46
2018-10-19T04:43:43.029Z,78.14
2018-10-19T04:46:15.306Z,77.96
2018-10-19T04:48:47.616Z,78.40
2018-10-19T04:51:19.951Z,78.48
2018-10-19T04:53:52.376Z,79.57
2018-10-19T04:56:24.529Z,80.10
2018-10-19T04:58:56.922Z,79.53
2018-10-19T05:01:29.121Z,78.60
2018-10-19T05:04:01.435Z,78.79
2018-10-19T05:06:34.026Z,78.62
2018-10-19T05:09:08.652Z,78.40
2018-10-19T05:11:41.001Z,78.10
2018-10-19T05:14:13.502Z,77.93
2018-10-19T05:16:45.717Z,77.34
2018-10-19T05:19:18.050Z,77.22
2018-10-19T05:21:50.313Z,77.39
2018-10-19T05:24:22.696Z,77.68
2018-10-19T05:26:54.973Z,77.97
2018-10-19T05:29:27.322Z,78.80
2018-10-19T05:31:59.750Z,79.55
2018-10-19T05:34:32.014Z,79.60
2018-10-19T05:37:04.586Z,79.37
2018-10-19T05:39:36.864Z,78.49
2018-10-19T05:42:09.281Z,79.01
2018-10-19T05:44:41.565Z,78.31
2018-10-19T05:47:14.057Z,77.96
2018-10-19T05:49:46.350Z,77.46
2018-10-19T05:52:18.658Z,77.73
2018-10-19T05:54:50.947Z,77.58
2018-10-19T05:57:23.236Z,77.64
2018-10-19T05:59:55.625Z,77.68
2018-10-19T06:02:28.002Z,77.76
2018-10-19T06:05:00.599Z,77.35
2018-10-19T06:07:32.892Z,77.54
2018-10-19T06:10:05.886Z,77.48
2018-10-19T06:12:38.243Z,77.57
2018-10-19T06:15:10.538Z,77.27
2018-10-19T06:17:42.826Z,77.35
2018-10-19T06:20:15.293Z,76.71
2018-10-19T06:22:47.540Z,77.07
2018-10-19T06:25:19.854Z,77.17
2018-10-19T06:27:52.212Z,76.71
2018-10-19T06:30:24.555Z,75.93
2018-10-19T06:32:56.853Z,75.59
2018-10-19T06:35:29.118Z,75.14
2018-10-19T06:38:01.416Z,75.16
2018-10-19T06:40:33.831Z,75.74
2018-10-19T06:43:06.190Z,75.67
2018-10-19T06:45:38.501Z,75.59
2018-10-19T06:48:10.875Z,74.92
2018-10-19T06:50:43.154Z,75.67
2018-10-19T06:53:15.496Z,74.87
2018-10-19T06:55:47.722Z,74.83
2018-10-19T06:58:20.018Z,74.90
2018-10-19T07:00:52.352Z,74.88
2018-10-19T07:03:24.637Z,75.00
2018-10-19T07:05:57.017Z,75.44
2018-10-19T07:08:29.617Z,74.42
2018-10-19T07:11:01.933Z,74.39
2018-10-19T07:13:34.526Z,75.13
2018-10-19T07:16:06.838Z,75.57
2018-10-19T07:18:39.136Z,75.25
2018-10-19T07:21:11.441Z,75.16
2018-10-19T07:23:43.713Z,75.04
2018-10-19T07:26:16.203Z,74.92
2018-10-19T07:28:48.474Z,75.86
2018-10-19T07:31:20.769Z,76.70
2018-10-19T07:33:53.803Z,77.19
2018-10-19T07:36:26.189Z,77.07
2018-10-19T07:38:58.429Z,77.98
2018-10-19T07:41:30.697Z,77.54
2018-10-19T07:44:03.100Z,77.90
2018-10-19T07:46:35.456Z,77.45
2018-10-19T07:49:07.781Z,77.13
2018-10-19T07:51:40.170Z,76.77
2018-10-19T07:54:12.602Z,77.78
2018-10-19T07:56:45.180Z,77.87
2018-10-19T07:59:17.528Z,78.35
2018-10-19T08:01:49.907Z,77.73
2018-10-19T08:04:22.354Z,78.17
2018-10-19T08:06:55.218Z,77.91
2018-10-19T08:09:27.530Z,78.35
2018-10-19T08:11:59.882Z,77.77
2018-10-19T08:14:32.298Z,77.66
2018-10-19T08:17:04.817Z,77.66
2018-10-19T08:19:37.161Z,76.54
2018-10-19T08:22:09.585Z,77.84
2018-10-19T08:24:42.031Z,77.05
2018-10-19T08:27:14.357Z,77.34
2018-10-19T08:29:46.664Z,76.25
2018-10-19T08:32:18.970Z,76.08
2018-10-19T08:34:51.292Z,75.71
2018-10-19T08:37:23.869Z,75.56
2018-10-19T08:39:56.246Z,75.13
2018-10-19T08:42:28.797Z,75.51
2018-10-19T08:45:01.204Z,75.14
2018-10-19T08:47:33.471Z,74.68
2018-10-19T08:50:06.364Z,74.82
2018-10-19T08:52:38.707Z,75.08
2018-10-19T08:55:11.111Z,73.87
2018-10-19T08:57:43.388Z,74.17
2018-10-19T09:00:15.747Z,74.36
2018-10-19T09:02:48.135Z,74.44
2018-10-19T09:05:20.446Z,74.61
2018-10-19T09:07:52.957Z,73.74
2018-10-19T09:10:25.321Z,73.94
2018-10-19T09:12:57.872Z,73.53
2018-10-19T09:15:30.086Z,74.10
2018-10-19T09:18:02.389Z,73.26
2018-10-19T09:20:34.758Z,71.43
2018-10-19T09:23:07.069Z,71.40
2018-10-19T09:25:39.408Z,70.32
2018-10-19T09:28:11.789Z,70.75
2018-10-19T09:30:44.122Z,69.80
2018-10-19T09:33:16.494Z,70.22
2018-10-19T09:35:48.761Z,69.47
2018-10-19T09:38:21.050Z,69.19
2018-10-19T09:40:53.429Z,70.19
2018-10-19T09:43:25.820Z,70.72
2018-10-19T09:45:58.085Z,69.09
2018-10-19T09:48:30.429Z,68.98
2018-10-19T09:51:02.812Z,68.30
2018-10-19T09:53:35.061Z,67.78
2018-10-19T09:56:07.406Z,67.88
2018-10-19T09:58:39.686Z,68.61
2018-10-19T10:01:17.645Z,68.09
2018-10-19T10:03:49.989Z,67.25
2018-10-19T10:06:22.286Z,66.98
2018-10-19T10:08:54.829Z,67.48
2018-10-19T10:11:27.258Z,66.95
2018-10-19T10:13:59.694Z,65.93
2018-10-19T10:16:31.978Z,65.80
2018-10-19T10:19:04.520Z,66.60
2018-10-19T10:21:36.768Z,66.02
2018-10-19T10:24:09.096Z,66.11
2018-10-19T10:26:41.357Z,65.36
2018-10-19T10:29:13.825Z,65.37
2018-10-19T10:31:46.114Z,65.84
2018-10-19T10:34:18.435Z,65.13
2018-10-19T10:36:50.730Z,65.22
2018-10-19T10:39:23.175Z,64.77
2018-10-19T10:41:55.658Z,64.96
2018-10-19T10:44:28.024Z,64.25
2018-10-19T10:47:00.396Z,64.06
2018-10-19T10:49:32.786Z,63.66
2018-10-19T10:52:05.949Z,64.11
2018-10-19T10:54:38.266Z,63.81
2018-10-19T10:57:10.562Z,63.59
2018-10-19T10:59:42.889Z,63.12
2018-10-19T11:02:15.201Z,63.94
2018-10-19T11:04:47.505Z,64.15
2018-10-19T11:07:19.834Z,63.33
2018-10-19T11:09:52.071Z,62.35
2018-10-19T11:12:24.506Z,61.91
2018-10-19T11:14:56.845Z,60.95
2018-10-19T11:17:29.160Z,61.49
2018-10-19T11:20:01.570Z,60.78
2018-10-19T11:22:33.973Z,60.01
2018-10-19T11:25:06.433Z,60.08
2018-10-19T11:27:38.770Z,60.51
2018-10-19T11:30:11.128Z,60.44
2018-10-19T11:32:43.408Z,59.53
2018-10-19T11:35:15.714Z,59.75
2018-10-19T11:37:48.036Z,58.89
2018-10-19T11:40:27.719Z,59.39
2018-10-19T11:43:00.209Z,59.64
2018-10-19T11:45:33.426Z,58.87
2018-10-19T11:48:05.763Z,58.93
2018-10-19T11:50:38.060Z,58.99
2018-10-19T11:53:10.365Z,58.79
2018-10-19T11:55:42.694Z,58.51
2018-10-19T11:58:14.979Z,59.68
2018-10-19T12:00:47.415Z,58.70
2018-10-19T12:03:19.722Z,58.17
2018-10-19T12:05:52.204Z,58.48
2018-10-19T12:08:24.653Z,58.59
2018-10-19T12:10:57.171Z,57.94
2018-10-19T12:13:29.436Z,58.23
2018-10-19T12:16:02.138Z,57.76
2018-10-19T12:18:34.433Z,57.72
2018-10-19T12:21:07.150Z,57.88
2018-10-19T12:23:39.464Z,57.73
2018-10-19T12:26:11.859Z,57.90
2018-10-19T12:28:44.191Z,57.64
2018-10-19T12:31:16.601Z,57.30
2018-10-19T12:33:48.937Z,56.80
2018-10-19T12:36:21.441Z,56.69
2018-10-19T12:38:53.858Z,55.90
2018-10-19T12:41:26.215Z,55.52
2018-10-19T12:43:58.582Z,55.53
2018-10-19T12:46:43.321Z,56.91
2018-10-19T12:49:18.219Z,57.00
2018-10-19T12:51:50.432Z,56.26
2018-10-19T12:54:22.763Z,56.04
2018-10-19T12:56:55.125Z,56.30
2018-10-19T12:59:27.413Z,55.59
2018-10-19T13:01:59.764Z,56.91
2018-10-19T13:04:32.155Z,55.95
2018-10-19T13:07:05.089Z,56.76
2018-10-19T13:09:37.467Z,56.38
2018-10-19T13:12:09.964Z,55.89
2018-10-19T13:14:42.325Z,55.62
2018-10-19T13:17:14.856Z,54.25
2018-10-19T13:19:47.411Z,54.39
2018-10-19T13:22:19.784Z,53.87
2018-10-19T13:24:52.197Z,53.91
2018-10-19T13:27:24.638Z,54.41
2018-10-19T13:29:57.046Z,53.29
2018-10-19T13:32:29.382Z,53.31
2018-10-19T13:35:01.733Z,53.43
2018-10-19T13:37:34.051Z,53.56
2018-10-19T13:40:06.450Z,53.56
2018-10-19T13:42:39.069Z,53.61
2018-10-19T13:45:11.768Z,53.65
2018-10-19T13:47:44.001Z,53.07
2018-10-19T13:50:16.340Z,52.98
2018-10-19T13:52:48.639Z,53.27
2018-10-19T13:55:21.388Z,54.08
2018-10-19T13:57:54.223Z,54.42
2018-10-19T14:00:27.142Z,53.74
2018-10-19T14:02:59.534Z,54.55
2018-10-19T14:05:32.006Z,53.91
2018-10-19T14:08:04.295Z,54.08
2018-10-19T14:10:36.774Z,54.00
2018-10-19T14:13:10.552Z,54.67
2018-10-19T14:15:42.997Z,54.23
2018-10-19T14:18:15.313Z,54.23
2018-10-19T14:20:47.663Z,54.26
2018-10-19T14:25:16.782Z,54.44
2018-10-19T14:27:49.086Z,54.16
2018-10-19T14:30:21.460Z,54.34
2018-10-19T14:32:53.810Z,54.67
2018-10-19T14:35:26.758Z,54.59
2018-10-19T14:37:59.178Z,54.28
2018-10-19T14:40:31.555Z,54.93
2018-10-19T14:43:03.971Z,53.96
2018-10-19T14:45:36.512Z,54.35
2018-10-19T14:48:08.836Z,54.97
2018-10-19T14:50:41.219Z,54.37
2018-10-19T14:53:13.610Z,54.67
2018-10-19T14:55:45.909Z,54.76
2018-10-19T14:58:18.430Z,54.55
2018-10-19T15:00:50.838Z,54.07
2018-10-19T15:03:23.263Z,53.58
2018-10-19T15:05:55.638Z,54.58
2018-10-19T15:08:28.163Z,54.58
2018-10-19T15:11:00.683Z,54.55
2018-10-19T15:13:33.062Z,54.80
2018-10-19T15:16:05.383Z,54.86
2018-10-19T15:18:37.931Z,55.23
2018-10-19T15:21:10.299Z,55.40
2018-10-19T15:23:42.603Z,55.88
2018-10-19T15:26:14.998Z,55.43
2018-10-19T15:28:47.649Z,55.80
2018-10-19T15:31:19.934Z,56.28
2018-10-19T15:33:52.337Z,56.15
2018-10-19T15:36:24.772Z,56.28
2018-10-19T15:38:57.214Z,56.09
2018-10-19T15:41:29.530Z,56.30
2018-10-19T15:44:01.878Z,56.39
2018-10-19T15:46:34.336Z,56.97
2018-10-19T15:49:06.654Z,57.20
2018-10-19T15:51:38.954Z,57.39
2018-10-19T15:54:11.379Z,57.48
2018-10-19T15:56:43.814Z,57.68
2018-10-19T15:59:16.309Z,57.43
2018-10-19T16:01:48.643Z,57.86
2018-10-19T16:04:20.970Z,58.26
2018-10-19T16:06:53.314Z,57.97
2018-10-19T16:09:25.630Z,58.00
2018-10-19T16:11:58.154Z,58.45
2018-10-19T16:14:30.417Z,59.15
2018-10-19T16:17:02.828Z,59.71
2018-10-19T16:19:35.156Z,59.09
2018-10-19T16:22:07.901Z,59.17
2018-10-19T16:24:40.271Z,59.90
2018-10-19T16:27:12.777Z,59.31
2018-10-19T16:29:45.082Z,59.67
2018-10-19T16:32:17.436Z,60.38
2018-10-19T16:34:49.800Z,60.63
2018-10-19T16:37:22.082Z,60.79
2018-10-19T16:39:54.400Z,61.07
2018-10-19T16:42:26.818Z,61.72
2018-10-19T16:44:59.178Z,62.20
2018-10-19T16:47:31.617Z,62.95
2018-10-19T16:50:04.261Z,63.37
2018-10-19T16:52:36.715Z,63.92
2018-10-19T16:55:09.016Z,64.21
2018-10-19T16:57:41.331Z,63.93
2018-10-19T17:00:13.731Z,64.40
2018-10-19T17:02:46.031Z,65.00
2018-10-19T17:05:18.488Z,64.63
2018-10-19T17:07:50.724Z,65.31
2018-10-19T17:10:23.106Z,65.57
2018-10-19T17:12:55.539Z,65.69
2018-10-19T17:15:27.984Z,66.33
2018-10-19T17:18:00.405Z,66.70
2018-10-19T17:20:32.818Z,66.52
2018-10-19T17:23:05.294Z,67.03
2018-10-19T17:25:37.846Z,67.07
2018-10-19T17:28:10.173Z,67.56
2018-10-19T17:30:42.558Z,67.47
2018-10-19T17:33:15.014Z,67.67
2018-10-19T17:35:47.390Z,67.92
2018-10-19T17:38:19.733Z,68.37
2018-10-19T17:40:52.057Z,68.42
2018-10-19T17:43:24.481Z,68.47
2018-10-19T17:45:56.902Z,68.22
2018-10-19T17:48:29.209Z,68.44
2018-10-19T17:51:02.044Z,68.45
2018-10-19T17:53:34.389Z,68.19
2018-10-19T17:56:06.754Z,68.66
2018-10-19T17:58:39.143Z,69.30
2018-10-19T18:01:11.578Z,69.55
2018-10-19T18:03:43.939Z,69.39
2018-10-19T18:06:16.486Z,69.71
2018-10-19T18:08:48.888Z,69.70
2018-10-19T18:11:21.308Z,70.11
2018-10-19T18:13:53.615Z,70.08
2018-10-19T18:16:26.005Z,69.78
2018-10-19T18:18:58.338Z,70.07
2018-10-19T18:21:31.162Z,70.27
2018-10-19T18:24:03.729Z,70.68
2018-10-19T18:26:36.116Z,70.82
2018-10-19T18:29:08.556Z,71.16
2018-10-19T18:31:40.952Z,70.91
2018-10-19T18:34:13.437Z,70.80
2018-10-19T18:36:46.062Z,70.66
2018-10-19T18:39:18.527Z,70.72
2018-10-19T18:41:50.877Z,71.52
2018-10-19T18:44:23.244Z,72.48
2018-10-19T18:46:55.758Z,72.45
2018-10-19T18:49:28.149Z,72.20
2018-10-19T18:52:00.477Z,72.50
2018-10-19T18:54:32.873Z,72.27
2018-10-19T18:57:05.311Z,73.00
2018-10-19T18:59:38.003Z,72.65
2018-10-19T19:02:10.671Z,73.13
2018-10-19T19:04:42.991Z,73.91
2018-10-19T19:07:15.748Z,74.19
2018-10-19T19:09:54.067Z,74.36
2018-10-19T19:12:26.809Z,74.31
2018-10-19T19:14:59.174Z,74.41
2018-10-19T19:17:31.644Z,74.24
2018-10-19T19:20:10.757Z,73.11
2018-10-19T19:22:43.562Z,74.24
2018-10-19T19:26:22.367Z,74.35
2018-10-19T19:28:55.092Z,74.28
2018-10-19T19:31:27.510Z,74.63
2018-10-19T19:34:05.433Z,74.58
2018-10-19T19:36:37.975Z,74.34
2018-10-19T19:39:10.456Z,74.59
2018-10-19T19:41:48.556Z,75.03
2018-10-19T19:44:20.986Z,75.16
2018-10-19T19:46:53.425Z,74.89
2018-10-19T19:49:31.440Z,74.73
2018-10-19T19:52:03.817Z,74.98
2018-10-19T19:54:36.201Z,74.89
2018-10-19T19:57:08.779Z,73.61
2018-10-19T19:59:41.115Z,74.49
2018-10-19T20:02:13.549Z,74.97
2018-10-19T20:04:45.908Z,75.46
2018-10-19T20:07:18.237Z,75.71
2018-10-19T20:09:50.625Z,76.09
2018-10-19T20:12:23.253Z,75.86
2018-10-19T20:14:55.490Z,76.00
2018-10-19T20:17:27.858Z,76.13
2018-10-19T20:20:00.256Z,76.18
2018-10-19T20:22:32.721Z,75.44
2018-10-19T20:25:06.032Z,75.26
2018-10-19T20:27:39.065Z,75.64
2018-10-19T20:30:12.865Z,75.39
2018-10-19T20:32:45.242Z,75.65
2018-10-19T20:35:17.636Z,75.43
2018-10-19T20:37:50.221Z,75.45
2018-10-19T20:40:22.785Z,76.12
2018-10-19T20:42:55.248Z,76.29
2018-10-19T20:45:27.774Z,76.56
2018-10-19T20:48:00.125Z,76.32
2018-10-19T20:50:32.507Z,76.05
2018-10-19T20:53:04.943Z,75.74
2018-10-19T20:55:37.336Z,75.32
2018-10-19T20:58:09.774Z,75.42
2018-10-19T21:00:42.398Z,75.28
2018-10-19T21:03:14.706Z,75.48
2018-10-19T21:05:47.044Z,75.40
2018-10-19T21:08:19.633Z,75.36
2018-10-19T21:10:52.047Z,75.59
2018-10-19T21:13:24.460Z,76.63
2018-10-19T21:15:56.777Z,76.69
2018-10-19T21:18:29.252Z,76.42
2018-10-19T21:21:01.592Z,76.14
2018-10-19T21:23:33.989Z,75.81
2018-10-19T21:26:06.494Z,75.84
2018-10-19T21:28:38.896Z,75.81
2018-10-19T21:31:11.254Z,75.79
2018-10-19T21:33:43.599Z,75.89
2018-10-19T21:36:15.928Z,76.37
2018-10-19T21:38:48.380Z,76.60
2018-10-19T21:41:20.837Z,76.98
2018-10-19T21:43:53.159Z,77.12
2018-10-19T21:46:25.562Z,77.49
2018-10-19T21:48:58.757Z,77.14
2018-10-19T21:51:31.209Z,77.70
2018-10-19T21:54:03.895Z,77.75
2018-10-19T21:56:36.257Z,78.51
2018-10-19T21:59:08.564Z,78.40
2018-10-19T22:01:41.279Z,77.97
2018-10-19T22:04:13.718Z,77.56
2018-10-19T22:06:46.210Z,77.14
2018-10-19T22:09:18.628Z,76.90
2018-10-19T22:11:50.990Z,76.36
2018-10-19T22:14:23.342Z,76.48
2018-10-19T22:16:55.930Z,76.73
2018-10-19T22:19:28.209Z,77.93
2018-10-19T22:22:00.509Z,78.12
2018-10-19T22:24:32.889Z,78.72
2018-10-19T22:27:05.311Z,78.30
2018-10-19T22:29:37.646Z,77.00
2018-10-19T22:32:09.989Z,76.59
2018-10-19T22:34:42.262Z,76.50
2018-10-19T22:37:14.666Z,76.59
2018-10-19T22:39:46.925Z,76.42
2018-10-19T22:42:19.200Z,76.08
2018-10-19T22:44:51.819Z,76.37
2018-10-19T22:47:24.081Z,76.40
2018-10-19T22:49:56.493Z,76.53
2018-10-19T22:52:28.801Z,75.98
2018-10-19T22:55:01.297Z,76.49
2018-10-19T22:57:33.896Z,76.17
2018-10-19T23:00:07.046Z,76.74
2018-10-19T23:02:39.381Z,78.02
2018-10-19T23:05:11.780Z,78.46
2018-10-19T23:07:44.242Z,79.15
2018-10-19T23:10:16.639Z,78.38
2018-10-19T23:12:49.003Z,78.26
2018-10-19T23:15:21.406Z,78.83
2018-10-19T23:17:53.785Z,78.37
2018-10-19T23:20:26.073Z,78.55
2018-10-19T23:22:58.512Z,79.16
2018-10-19T23:25:30.787Z,78.82
2018-10-19T23:28:03.073Z,79.04
2018-10-19T23:30:35.394Z,77.90
2018-10-19T23:33:07.725Z,77.56
2018-10-19T23:35:40.029Z,76.79
2018-10-19T23:38:12.392Z,76.44
2018-10-19T23:40:44.649Z,76.33
2018-10-19T23:43:17.017Z,75.90
2018-10-19T23:45:49.430Z,76.18
2018-10-19T23:48:21.819Z,76.68
2018-10-19T23:50:54.081Z,76.72
2018-10-19T23:53:26.465Z,76.38
2018-10-19T23:55:58.723Z,77.24
2018-10-19T23:58:31.049Z,77.22
